sensor_id;sensor_type;location;lat;lon;timestamp;P1;durP1;ratioP1;P2;durP2;ratioP2
41653;SDS011;30790;52.030;7.110;2022-11-22T00:01:54;5.40;;;3.03;;
41653;SDS011;30790;52.030;7.110;2022-11-22T00:04:19;5.10;;;3.15;;
41653;SDS011;30790;52.030;7.110;2022-11-22T00:06:44;8.73;;;3.53;;
41653;SDS011;30790;52.030;7.110;2022-11-22T00:09:10;5.13;;;3.00;;
41653;SDS011;30790;52.030;7.110;2022-11-22T00:11:35;8.47;;;3.53;;
41653;SDS011;30790;52.030;7.110;2022-11-22T00:14:00;6.82;;;3.30;;
41653;SDS011;30790;52.030;7.110;2022-11-22T00:16:25;7.18;;;3.65;;
41653;SDS011;30790;52.030;7.110;2022-11-22T00:18:51;6.28;;;3.35;;
41653;SDS011;30790;52.030;7.110;2022-11-22T00:21:16;5.78;;;3.25;;
41653;SDS011;30790;52.030;7.110;2022-11-22T00:23:42;4.47;;;3.30;;
41653;SDS011;30790;52.030;7.110;2022-11-22T00:26:07;6.40;;;3.22;;
41653;SDS011;30790;52.030;7.110;2022-11-22T00:28:36;6.65;;;3.25;;
41653;SDS011;30790;52.030;7.110;2022-11-22T00:31:02;6.32;;;3.75;;
41653;SDS011;30790;52.030;7.110;2022-11-22T00:33:27;5.60;;;3.47;;
41653;SDS011;30790;52.030;7.110;2022-11-22T00:35:52;5.28;;;3.53;;
41653;SDS011;30790;52.030;7.110;2022-11-22T00:38:18;6.33;;;3.70;;
41653;SDS011;30790;52.030;7.110;2022-11-22T00:40:43;4.93;;;3.42;;
41653;SDS011;30790;52.030;7.110;2022-11-22T00:43:08;6.80;;;3.85;;
41653;SDS011;30790;52.030;7.110;2022-11-22T00:45:34;8.10;;;3.30;;
41653;SDS011;30790;52.030;7.110;2022-11-22T00:47:59;6.85;;;3.45;;
41653;SDS011;30790;52.030;7.110;2022-11-22T00:50:24;5.22;;;3.15;;
41653;SDS011;30790;52.030;7.110;2022-11-22T00:52:49;5.80;;;3.40;;
41653;SDS011;30790;52.030;7.110;2022-11-22T00:55:15;5.32;;;3.88;;
41653;SDS011;30790;52.030;7.110;2022-11-22T00:57:40;5.50;;;3.40;;
41653;SDS011;30790;52.030;7.110;2022-11-22T01:00:05;4.90;;;3.10;;
41653;SDS011;30790;52.030;7.110;2022-11-22T01:02:31;5.43;;;3.50;;
41653;SDS011;30790;52.030;7.110;2022-11-22T01:04:56;4.95;;;3.10;;
41653;SDS011;30790;52.030;7.110;2022-11-22T01:07:22;4.30;;;2.80;;
41653;SDS011;30790;52.030;7.110;2022-11-22T01:09:47;5.95;;;3.42;;
41653;SDS011;30790;52.030;7.110;2022-11-22T01:12:12;6.05;;;3.25;;
41653;SDS011;30790;52.030;7.110;2022-11-22T01:14:37;5.38;;;2.78;;
41653;SDS011;30790;52.030;7.110;2022-11-22T01:17:03;3.92;;;2.80;;
41653;SDS011;30790;52.030;7.110;2022-11-22T01:19:28;5.70;;;2.92;;
41653;SDS011;30790;52.030;7.110;2022-11-22T01:21:53;5.20;;;3.08;;
41653;SDS011;30790;52.030;7.110;2022-11-22T01:24:18;5.17;;;3.47;;
41653;SDS011;30790;52.030;7.110;2022-11-22T01:26:44;4.37;;;2.90;;
41653;SDS011;30790;52.030;7.110;2022-11-22T01:29:09;3.80;;;2.97;;
41653;SDS011;30790;52.030;7.110;2022-11-22T01:31:34;4.18;;;3.15;;
41653;SDS011;30790;52.030;7.110;2022-11-22T01:34:00;5.30;;;3.05;;
41653;SDS011;30790;52.030;7.110;2022-11-22T01:36:25;6.68;;;2.72;;
41653;SDS011;30790;52.030;7.110;2022-11-22T01:38:51;5.15;;;3.10;;
41653;SDS011;30790;52.030;7.110;2022-11-22T01:41:17;5.35;;;2.80;;
41653;SDS011;30790;52.030;7.110;2022-11-22T01:43:42;4.03;;;3.00;;
41653;SDS011;30790;52.030;7.110;2022-11-22T01:46:20;5.07;;;2.60;;
41653;SDS011;30790;52.030;7.110;2022-11-22T01:48:48;5.07;;;3.05;;
41653;SDS011;30790;52.030;7.110;2022-11-22T01:51:19;6.28;;;3.42;;
41653;SDS011;30790;52.030;7.110;2022-11-22T01:53:50;3.97;;;2.80;;
41653;SDS011;30790;52.030;7.110;2022-11-22T01:56:18;4.85;;;2.72;;
41653;SDS011;30790;52.030;7.110;2022-11-22T01:58:45;5.03;;;2.88;;
41653;SDS011;30790;52.030;7.110;2022-11-22T02:01:15;4.68;;;2.80;;
41653;SDS011;30790;52.030;7.110;2022-11-22T02:03:40;4.78;;;2.95;;
41653;SDS011;30790;52.030;7.110;2022-11-22T02:06:10;4.00;;;3.03;;
41653;SDS011;30790;52.030;7.110;2022-11-22T02:08:45;4.60;;;2.50;;
41653;SDS011;30790;52.030;7.110;2022-11-22T02:11:16;4.32;;;2.47;;
41653;SDS011;30790;52.030;7.110;2022-11-22T02:13:44;4.60;;;3.03;;
41653;SDS011;30790;52.030;7.110;2022-11-22T02:16:09;6.13;;;2.95;;
41653;SDS011;30790;52.030;7.110;2022-11-22T02:18:35;3.25;;;2.25;;
41653;SDS011;30790;52.030;7.110;2022-11-22T02:21:02;3.17;;;2.70;;
41653;SDS011;30790;52.030;7.110;2022-11-22T02:23:31;4.75;;;2.60;;
41653;SDS011;30790;52.030;7.110;2022-11-22T02:26:05;3.33;;;2.33;;
41653;SDS011;30790;52.030;7.110;2022-11-22T02:28:31;4.93;;;2.80;;
41653;SDS011;30790;52.030;7.110;2022-11-22T02:31:00;4.78;;;2.97;;
41653;SDS011;30790;52.030;7.110;2022-11-22T02:33:25;3.58;;;2.42;;
41653;SDS011;30790;52.030;7.110;2022-11-22T02:35:51;4.78;;;2.90;;
41653;SDS011;30790;52.030;7.110;2022-11-22T02:38:18;3.92;;;2.53;;
41653;SDS011;30790;52.030;7.110;2022-11-22T02:40:51;3.50;;;2.60;;
41653;SDS011;30790;52.030;7.110;2022-11-22T02:43:33;3.45;;;2.63;;
41653;SDS011;30790;52.030;7.110;2022-11-22T02:46:02;3.38;;;2.63;;
41653;SDS011;30790;52.030;7.110;2022-11-22T02:48:29;3.67;;;2.65;;
41653;SDS011;30790;52.030;7.110;2022-11-22T02:50:54;3.80;;;2.47;;
41653;SDS011;30790;52.030;7.110;2022-11-22T02:53:19;3.40;;;2.58;;
41653;SDS011;30790;52.030;7.110;2022-11-22T02:55:44;3.83;;;2.22;;
41653;SDS011;30790;52.030;7.110;2022-11-22T02:58:10;2.85;;;2.15;;
41653;SDS011;30790;52.030;7.110;2022-11-22T03:00:35;4.30;;;2.50;;
41653;SDS011;30790;52.030;7.110;2022-11-22T03:03:02;4.00;;;2.60;;
41653;SDS011;30790;52.030;7.110;2022-11-22T03:05:27;3.13;;;2.47;;
41653;SDS011;30790;52.030;7.110;2022-11-22T03:07:52;4.20;;;2.33;;
41653;SDS011;30790;52.030;7.110;2022-11-22T03:10:18;3.25;;;2.30;;
41653;SDS011;30790;52.030;7.110;2022-11-22T03:12:43;3.05;;;2.28;;
41653;SDS011;30790;52.030;7.110;2022-11-22T03:15:08;3.92;;;2.40;;
41653;SDS011;30790;52.030;7.110;2022-11-22T03:17:34;4.20;;;2.55;;
41653;SDS011;30790;52.030;7.110;2022-11-22T03:19:59;2.58;;;2.10;;
41653;SDS011;30790;52.030;7.110;2022-11-22T03:22:24;3.60;;;2.30;;
41653;SDS011;30790;52.030;7.110;2022-11-22T03:24:50;4.43;;;2.72;;
41653;SDS011;30790;52.030;7.110;2022-11-22T03:27:15;3.30;;;2.33;;
41653;SDS011;30790;52.030;7.110;2022-11-22T03:29:40;2.80;;;2.33;;
41653;SDS011;30790;52.030;7.110;2022-11-22T03:32:06;3.90;;;2.63;;
41653;SDS011;30790;52.030;7.110;2022-11-22T03:34:31;3.65;;;2.28;;
41653;SDS011;30790;52.030;7.110;2022-11-22T03:36:56;3.53;;;2.40;;
41653;SDS011;30790;52.030;7.110;2022-11-22T03:39:21;4.57;;;2.28;;
41653;SDS011;30790;52.030;7.110;2022-11-22T03:41:47;5.28;;;2.58;;
41653;SDS011;30790;52.030;7.110;2022-11-22T03:44:12;3.22;;;2.20;;
41653;SDS011;30790;52.030;7.110;2022-11-22T03:46:37;5.85;;;2.50;;
41653;SDS011;30790;52.030;7.110;2022-11-22T03:49:03;3.17;;;2.28;;
41653;SDS011;30790;52.030;7.110;2022-11-22T03:51:28;3.67;;;2.17;;
41653;SDS011;30790;52.030;7.110;2022-11-22T03:53:53;2.72;;;2.22;;
41653;SDS011;30790;52.030;7.110;2022-11-22T03:56:18;3.53;;;2.60;;
41653;SDS011;30790;52.030;7.110;2022-11-22T03:58:44;2.58;;;2.15;;
41653;SDS011;30790;52.030;7.110;2022-11-22T04:01:09;3.08;;;2.20;;
41653;SDS011;30790;52.030;7.110;2022-11-22T04:03:34;4.95;;;2.30;;
41653;SDS011;30790;52.030;7.110;2022-11-22T04:05:59;4.05;;;2.53;;
41653;SDS011;30790;52.030;7.110;2022-11-22T04:08:25;3.33;;;2.38;;
41653;SDS011;30790;52.030;7.110;2022-11-22T04:10:50;2.97;;;2.33;;
41653;SDS011;30790;52.030;7.110;2022-11-22T04:13:16;5.38;;;2.53;;
41653;SDS011;30790;52.030;7.110;2022-11-22T04:15:42;2.75;;;2.20;;
41653;SDS011;30790;52.030;7.110;2022-11-22T04:18:10;2.80;;;2.00;;
41653;SDS011;30790;52.030;7.110;2022-11-22T04:20:37;3.38;;;2.17;;
41653;SDS011;30790;52.030;7.110;2022-11-22T04:23:23;3.35;;;2.30;;
41653;SDS011;30790;52.030;7.110;2022-11-22T04:25:50;2.92;;;2.10;;
41653;SDS011;30790;52.030;7.110;2022-11-22T04:28:19;2.20;;;1.98;;
41653;SDS011;30790;52.030;7.110;2022-11-22T04:30:46;4.25;;;2.25;;
41653;SDS011;30790;52.030;7.110;2022-11-22T04:33:31;3.30;;;2.25;;
41653;SDS011;30790;52.030;7.110;2022-11-22T04:35:56;2.92;;;2.20;;
41653;SDS011;30790;52.030;7.110;2022-11-22T04:38:21;2.50;;;2.00;;
41653;SDS011;30790;52.030;7.110;2022-11-22T04:40:47;3.28;;;2.20;;
41653;SDS011;30790;52.030;7.110;2022-11-22T04:43:23;2.55;;;2.03;;
41653;SDS011;30790;52.030;7.110;2022-11-22T04:46:08;2.95;;;2.30;;
41653;SDS011;30790;52.030;7.110;2022-11-22T04:48:34;4.05;;;2.15;;
41653;SDS011;30790;52.030;7.110;2022-11-22T04:51:00;3.00;;;2.17;;
41653;SDS011;30790;52.030;7.110;2022-11-22T04:53:44;3.92;;;2.13;;
41653;SDS011;30790;52.030;7.110;2022-11-22T04:56:10;2.92;;;2.03;;
41653;SDS011;30790;52.030;7.110;2022-11-22T04:58:36;2.17;;;1.75;;
41653;SDS011;30790;52.030;7.110;2022-11-22T05:01:01;2.70;;;2.10;;
41653;SDS011;30790;52.030;7.110;2022-11-22T05:03:27;3.53;;;2.10;;
41653;SDS011;30790;52.030;7.110;2022-11-22T05:05:52;1.60;;;1.50;;
41653;SDS011;30790;52.030;7.110;2022-11-22T05:08:17;2.80;;;2.07;;
41653;SDS011;30790;52.030;7.110;2022-11-22T05:10:43;2.53;;;1.70;;
41653;SDS011;30790;52.030;7.110;2022-11-22T05:13:24;3.10;;;2.10;;
41653;SDS011;30790;52.030;7.110;2022-11-22T05:15:55;2.88;;;1.83;;
41653;SDS011;30790;52.030;7.110;2022-11-22T05:18:21;3.40;;;2.22;;
41653;SDS011;30790;52.030;7.110;2022-11-22T05:20:47;2.20;;;1.88;;
41653;SDS011;30790;52.030;7.110;2022-11-22T05:23:13;3.28;;;2.22;;
41653;SDS011;30790;52.030;7.110;2022-11-22T05:25:58;3.22;;;2.00;;
41653;SDS011;30790;52.030;7.110;2022-11-22T05:28:26;2.80;;;1.98;;
41653;SDS011;30790;52.030;7.110;2022-11-22T05:30:53;3.42;;;2.00;;
41653;SDS011;30790;52.030;7.110;2022-11-22T05:33:18;5.30;;;1.95;;
41653;SDS011;30790;52.030;7.110;2022-11-22T05:35:43;2.33;;;1.87;;
41653;SDS011;30790;52.030;7.110;2022-11-22T05:38:08;1.92;;;1.52;;
41653;SDS011;30790;52.030;7.110;2022-11-22T05:40:34;3.25;;;1.73;;
41653;SDS011;30790;52.030;7.110;2022-11-22T05:42:59;4.43;;;2.17;;
41653;SDS011;30790;52.030;7.110;2022-11-22T05:45:24;2.88;;;1.88;;
41653;SDS011;30790;52.030;7.110;2022-11-22T05:47:49;2.42;;;1.83;;
41653;SDS011;30790;52.030;7.110;2022-11-22T05:50:15;3.70;;;2.00;;
41653;SDS011;30790;52.030;7.110;2022-11-22T05:52:40;2.95;;;1.90;;
41653;SDS011;30790;52.030;7.110;2022-11-22T05:55:06;2.50;;;1.75;;
41653;SDS011;30790;52.030;7.110;2022-11-22T05:57:31;1.98;;;1.63;;
41653;SDS011;30790;52.030;7.110;2022-11-22T05:59:57;3.60;;;1.60;;
41653;SDS011;30790;52.030;7.110;2022-11-22T06:02:22;2.75;;;1.80;;
41653;SDS011;30790;52.030;7.110;2022-11-22T06:04:47;2.83;;;1.70;;
41653;SDS011;30790;52.030;7.110;2022-11-22T06:07:13;3.15;;;2.08;;
41653;SDS011;30790;52.030;7.110;2022-11-22T06:09:38;2.78;;;1.63;;
41653;SDS011;30790;52.030;7.110;2022-11-22T06:12:03;3.97;;;1.92;;
41653;SDS011;30790;52.030;7.110;2022-11-22T06:14:29;5.03;;;2.13;;
41653;SDS011;30790;52.030;7.110;2022-11-22T06:16:54;5.13;;;2.72;;
41653;SDS011;30790;52.030;7.110;2022-11-22T06:19:19;2.45;;;1.73;;
41653;SDS011;30790;52.030;7.110;2022-11-22T06:21:44;4.47;;;2.03;;
41653;SDS011;30790;52.030;7.110;2022-11-22T06:24:10;3.85;;;2.45;;
41653;SDS011;30790;52.030;7.110;2022-11-22T06:26:35;6.07;;;1.75;;
41653;SDS011;30790;52.030;7.110;2022-11-22T06:29:00;3.75;;;1.73;;
41653;SDS011;30790;52.030;7.110;2022-11-22T06:31:26;2.50;;;1.73;;
41653;SDS011;30790;52.030;7.110;2022-11-22T06:33:56;3.15;;;1.98;;
41653;SDS011;30790;52.030;7.110;2022-11-22T06:36:24;4.10;;;2.00;;
41653;SDS011;30790;52.030;7.110;2022-11-22T06:38:51;2.50;;;1.95;;
41653;SDS011;30790;52.030;7.110;2022-11-22T06:41:18;4.47;;;1.67;;
41653;SDS011;30790;52.030;7.110;2022-11-22T06:43:45;2.10;;;1.85;;
41653;SDS011;30790;52.030;7.110;2022-11-22T06:46:12;3.35;;;2.28;;
41653;SDS011;30790;52.030;7.110;2022-11-22T06:48:38;5.22;;;1.95;;
41653;SDS011;30790;52.030;7.110;2022-11-22T06:51:05;6.07;;;1.83;;
41653;SDS011;30790;52.030;7.110;2022-11-22T06:53:37;5.22;;;1.65;;
41653;SDS011;30790;52.030;7.110;2022-11-22T06:56:04;1.70;;;1.33;;
41653;SDS011;30790;52.030;7.110;2022-11-22T06:58:34;5.68;;;1.60;;
41653;SDS011;30790;52.030;7.110;2022-11-22T07:01:00;2.30;;;1.58;;
41653;SDS011;30790;52.030;7.110;2022-11-22T07:03:30;2.40;;;1.38;;
41653;SDS011;30790;52.030;7.110;2022-11-22T07:05:55;5.25;;;1.88;;
41653;SDS011;30790;52.030;7.110;2022-11-22T07:08:21;9.82;;;1.77;;
41653;SDS011;30790;52.030;7.110;2022-11-22T07:10:47;8.55;;;2.33;;
41653;SDS011;30790;52.030;7.110;2022-11-22T07:13:13;9.60;;;2.35;;
41653;SDS011;30790;52.030;7.110;2022-11-22T07:15:38;9.10;;;2.58;;
41653;SDS011;30790;52.030;7.110;2022-11-22T07:18:03;19.90;;;3.22;;
41653;SDS011;30790;52.030;7.110;2022-11-22T07:20:29;6.07;;;2.13;;
41653;SDS011;30790;52.030;7.110;2022-11-22T07:22:54;8.10;;;2.22;;
41653;SDS011;30790;52.030;7.110;2022-11-22T07:25:19;9.40;;;2.45;;
41653;SDS011;30790;52.030;7.110;2022-11-22T07:27:45;10.07;;;2.40;;
41653;SDS011;30790;52.030;7.110;2022-11-22T07:30:10;6.25;;;2.00;;
41653;SDS011;30790;52.030;7.110;2022-11-22T07:32:36;8.20;;;2.70;;
41653;SDS011;30790;52.030;7.110;2022-11-22T07:35:01;8.97;;;2.63;;
41653;SDS011;30790;52.030;7.110;2022-11-22T07:37:26;14.32;;;3.13;;
41653;SDS011;30790;52.030;7.110;2022-11-22T07:39:54;10.13;;;3.42;;
41653;SDS011;30790;52.030;7.110;2022-11-22T07:42:20;9.47;;;2.57;;
41653;SDS011;30790;52.030;7.110;2022-11-22T07:44:45;15.20;;;2.78;;
41653;SDS011;30790;52.030;7.110;2022-11-22T07:47:10;15.88;;;2.85;;
41653;SDS011;30790;52.030;7.110;2022-11-22T07:49:35;17.30;;;3.30;;
41653;SDS011;30790;52.030;7.110;2022-11-22T07:52:01;19.40;;;3.05;;
41653;SDS011;30790;52.030;7.110;2022-11-22T07:54:26;12.80;;;3.07;;
41653;SDS011;30790;52.030;7.110;2022-11-22T07:56:51;12.95;;;3.25;;
41653;SDS011;30790;52.030;7.110;2022-11-22T07:59:17;18.23;;;3.25;;
41653;SDS011;30790;52.030;7.110;2022-11-22T08:01:42;8.70;;;2.65;;
41653;SDS011;30790;52.030;7.110;2022-11-22T08:04:08;15.73;;;3.72;;
41653;SDS011;30790;52.030;7.110;2022-11-22T08:06:33;22.77;;;3.35;;
41653;SDS011;30790;52.030;7.110;2022-11-22T08:08:59;14.32;;;2.90;;
41653;SDS011;30790;52.030;7.110;2022-11-22T08:11:24;20.25;;;3.58;;
41653;SDS011;30790;52.030;7.110;2022-11-22T08:13:49;15.80;;;3.28;;
41653;SDS011;30790;52.030;7.110;2022-11-22T08:16:15;14.20;;;2.50;;
41653;SDS011;30790;52.030;7.110;2022-11-22T08:18:44;13.07;;;3.15;;
41653;SDS011;30790;52.030;7.110;2022-11-22T08:21:12;20.52;;;3.00;;
41653;SDS011;30790;52.030;7.110;2022-11-22T08:23:38;13.00;;;2.40;;
41653;SDS011;30790;52.030;7.110;2022-11-22T08:26:05;14.75;;;2.75;;
41653;SDS011;30790;52.030;7.110;2022-11-22T08:28:32;13.63;;;3.15;;
41653;SDS011;30790;52.030;7.110;2022-11-22T08:30:58;7.70;;;2.60;;
41653;SDS011;30790;52.030;7.110;2022-11-22T08:33:25;9.25;;;2.85;;
41653;SDS011;30790;52.030;7.110;2022-11-22T08:35:51;19.30;;;2.90;;
41653;SDS011;30790;52.030;7.110;2022-11-22T08:38:16;12.45;;;2.95;;
41653;SDS011;30790;52.030;7.110;2022-11-22T08:40:41;11.20;;;3.08;;
41653;SDS011;30790;52.030;7.110;2022-11-22T08:43:06;15.27;;;2.57;;
41653;SDS011;30790;52.030;7.110;2022-11-22T08:45:32;14.97;;;2.77;;
41653;SDS011;30790;52.030;7.110;2022-11-22T08:47:57;8.77;;;2.70;;
41653;SDS011;30790;52.030;7.110;2022-11-22T08:50:23;11.07;;;2.77;;
41653;SDS011;30790;52.030;7.110;2022-11-22T08:52:48;11.18;;;2.55;;
41653;SDS011;30790;52.030;7.110;2022-11-22T08:55:13;16.25;;;3.10;;
41653;SDS011;30790;52.030;7.110;2022-11-22T08:57:39;19.58;;;2.95;;
41653;SDS011;30790;52.030;7.110;2022-11-22T09:00:04;14.25;;;2.97;;
41653;SDS011;30790;52.030;7.110;2022-11-22T09:02:30;12.40;;;3.05;;
41653;SDS011;30790;52.030;7.110;2022-11-22T09:04:56;16.95;;;3.20;;
41653;SDS011;30790;52.030;7.110;2022-11-22T09:07:21;8.27;;;2.17;;
41653;SDS011;30790;52.030;7.110;2022-11-22T09:09:46;11.23;;;2.90;;
41653;SDS011;30790;52.030;7.110;2022-11-22T09:12:11;16.95;;;2.97;;
41653;SDS011;30790;52.030;7.110;2022-11-22T09:14:37;12.20;;;2.30;;
41653;SDS011;30790;52.030;7.110;2022-11-22T09:17:02;11.07;;;3.05;;
41653;SDS011;30790;52.030;7.110;2022-11-22T09:19:29;15.57;;;2.70;;
41653;SDS011;30790;52.030;7.110;2022-11-22T09:21:54;9.75;;;2.55;;
41653;SDS011;30790;52.030;7.110;2022-11-22T09:24:20;12.03;;;2.27;;
41653;SDS011;30790;52.030;7.110;2022-11-22T09:26:45;12.48;;;2.33;;
41653;SDS011;30790;52.030;7.110;2022-11-22T09:29:10;8.98;;;2.50;;
41653;SDS011;30790;52.030;7.110;2022-11-22T09:31:36;12.07;;;3.25;;
41653;SDS011;30790;52.030;7.110;2022-11-22T09:34:01;13.55;;;3.40;;
41653;SDS011;30790;52.030;7.110;2022-11-22T09:36:26;18.33;;;3.92;;
41653;SDS011;30790;52.030;7.110;2022-11-22T09:38:52;13.32;;;4.40;;
41653;SDS011;30790;52.030;7.110;2022-11-22T09:43:49;13.32;;;3.60;;
41653;SDS011;30790;52.030;7.110;2022-11-22T09:46:39;15.57;;;3.75;;
41653;SDS011;30790;52.030;7.110;2022-11-22T09:52:08;24.40;;;5.30;;
41653;SDS011;30790;52.030;7.110;2022-11-22T10:00:08;18.58;;;4.15;;
41653;SDS011;30790;52.030;7.110;2022-11-22T10:02:51;18.08;;;4.05;;
41653;SDS011;30790;52.030;7.110;2022-11-22T10:05:25;16.55;;;4.32;;
41653;SDS011;30790;52.030;7.110;2022-11-22T10:07:58;23.52;;;4.22;;
41653;SDS011;30790;52.030;7.110;2022-11-22T10:10:28;18.90;;;4.10;;
41653;SDS011;30790;52.030;7.110;2022-11-22T10:13:04;26.80;;;4.53;;
41653;SDS011;30790;52.030;7.110;2022-11-22T10:15:58;14.40;;;3.55;;
41653;SDS011;30790;52.030;7.110;2022-11-22T10:18:26;16.30;;;3.50;;
41653;SDS011;30790;52.030;7.110;2022-11-22T10:21:02;15.32;;;3.63;;
41653;SDS011;30790;52.030;7.110;2022-11-22T10:23:27;13.98;;;3.55;;
41653;SDS011;30790;52.030;7.110;2022-11-22T10:25:55;23.17;;;3.92;;
41653;SDS011;30790;52.030;7.110;2022-11-22T10:28:33;27.80;;;5.35;;
41653;SDS011;30790;52.030;7.110;2022-11-22T10:31:17;28.75;;;4.15;;
41653;SDS011;30790;52.030;7.110;2022-11-22T10:33:57;39.00;;;6.00;;
41653;SDS011;30790;52.030;7.110;2022-11-22T10:36:36;59.35;;;7.28;;
41653;SDS011;30790;52.030;7.110;2022-11-22T10:44:46;38.63;;;7.05;;
41653;SDS011;30790;52.030;7.110;2022-11-22T10:53:09;26.10;;;5.40;;
41653;SDS011;30790;52.030;7.110;2022-11-22T10:55:52;34.50;;;6.68;;
41653;SDS011;30790;52.030;7.110;2022-11-22T10:58:22;33.28;;;5.45;;
41653;SDS011;30790;52.030;7.110;2022-11-22T11:01:09;28.05;;;5.05;;
41653;SDS011;30790;52.030;7.110;2022-11-22T11:03:45;31.73;;;5.25;;
41653;SDS011;30790;52.030;7.110;2022-11-22T11:06:15;33.38;;;5.07;;
41653;SDS011;30790;52.030;7.110;2022-11-22T11:08:53;31.75;;;4.95;;
41653;SDS011;30790;52.030;7.110;2022-11-22T11:11:23;26.42;;;5.35;;
41653;SDS011;30790;52.030;7.110;2022-11-22T11:14:03;38.40;;;5.88;;
41653;SDS011;30790;52.030;7.110;2022-11-22T11:16:45;30.75;;;5.35;;
41653;SDS011;30790;52.030;7.110;2022-11-22T11:19:14;25.65;;;5.03;;
41653;SDS011;30790;52.030;7.110;2022-11-22T11:21:42;28.95;;;5.07;;
41653;SDS011;30790;52.030;7.110;2022-11-22T11:24:14;28.73;;;5.65;;
41653;SDS011;30790;52.030;7.110;2022-11-22T11:26:51;30.70;;;5.68;;
41653;SDS011;30790;52.030;7.110;2022-11-22T11:31:47;22.63;;;3.93;;
41653;SDS011;30790;52.030;7.110;2022-11-22T11:34:24;31.85;;;5.50;;
41653;SDS011;30790;52.030;7.110;2022-11-22T11:36:52;25.92;;;4.70;;
41653;SDS011;30790;52.030;7.110;2022-11-22T11:39:20;21.55;;;3.63;;
41653;SDS011;30790;52.030;7.110;2022-11-22T11:41:47;21.60;;;3.60;;
41653;SDS011;30790;52.030;7.110;2022-11-22T11:47:01;17.10;;;4.18;;
41653;SDS011;30790;52.030;7.110;2022-11-22T11:49:29;25.90;;;5.72;;
41653;SDS011;30790;52.030;7.110;2022-11-22T11:51:57;13.95;;;3.35;;
41653;SDS011;30790;52.030;7.110;2022-11-22T11:56:59;20.50;;;3.67;;
41653;SDS011;30790;52.030;7.110;2022-11-22T11:59:39;20.42;;;4.85;;
41653;SDS011;30790;52.030;7.110;2022-11-22T12:02:10;14.02;;;4.05;;
41653;SDS011;30790;52.030;7.110;2022-11-22T12:04:51;21.88;;;5.00;;
41653;SDS011;30790;52.030;7.110;2022-11-22T12:07:19;19.70;;;4.22;;
41653;SDS011;30790;52.030;7.110;2022-11-22T12:09:48;17.48;;;3.35;;
41653;SDS011;30790;52.030;7.110;2022-11-22T12:15:27;16.90;;;3.30;;
41653;SDS011;30790;52.030;7.110;2022-11-22T12:18:12;11.23;;;3.25;;
41653;SDS011;30790;52.030;7.110;2022-11-22T12:20:52;14.60;;;3.25;;
41653;SDS011;30790;52.030;7.110;2022-11-22T12:26:10;16.33;;;3.50;;
41653;SDS011;30790;52.030;7.110;2022-11-22T12:28:37;15.35;;;3.63;;
41653;SDS011;30790;52.030;7.110;2022-11-22T12:34:10;22.35;;;4.15;;
41653;SDS011;30790;52.030;7.110;2022-11-22T12:36:46;14.43;;;3.35;;
41653;SDS011;30790;52.030;7.110;2022-11-22T12:39:21;10.90;;;2.78;;
41653;SDS011;30790;52.030;7.110;2022-11-22T12:41:52;12.75;;;3.80;;
41653;SDS011;30790;52.030;7.110;2022-11-22T12:44:24;13.10;;;3.47;;
41653;SDS011;30790;52.030;7.110;2022-11-22T12:46:51;19.77;;;3.70;;
41653;SDS011;30790;52.030;7.110;2022-11-22T12:52:24;15.20;;;3.20;;
41653;SDS011;30790;52.030;7.110;2022-11-22T12:55:03;11.27;;;2.83;;
41653;SDS011;30790;52.030;7.110;2022-11-22T12:57:38;13.00;;;2.92;;
41653;SDS011;30790;52.030;7.110;2022-11-22T13:00:14;15.68;;;3.05;;
41653;SDS011;30790;52.030;7.110;2022-11-22T13:05:20;18.58;;;3.70;;
41653;SDS011;30790;52.030;7.110;2022-11-22T13:10:35;12.73;;;2.85;;
41653;SDS011;30790;52.030;7.110;2022-11-22T13:13:05;12.80;;;3.00;;
41653;SDS011;30790;52.030;7.110;2022-11-22T13:15:55;18.80;;;3.40;;
41653;SDS011;30790;52.030;7.110;2022-11-22T13:18:24;15.30;;;3.50;;
41653;SDS011;30790;52.030;7.110;2022-11-22T13:20:55;14.77;;;2.80;;
41653;SDS011;30790;52.030;7.110;2022-11-22T13:23:48;11.13;;;2.90;;
41653;SDS011;30790;52.030;7.110;2022-11-22T13:29:26;16.88;;;3.25;;
41653;SDS011;30790;52.030;7.110;2022-11-22T13:34:37;14.43;;;3.20;;
41653;SDS011;30790;52.030;7.110;2022-11-22T13:37:12;14.23;;;2.67;;
41653;SDS011;30790;52.030;7.110;2022-11-22T13:39:41;15.35;;;3.58;;
41653;SDS011;30790;52.030;7.110;2022-11-22T13:42:10;11.38;;;2.53;;
41653;SDS011;30790;52.030;7.110;2022-11-22T13:49:46;13.33;;;2.70;;
41653;SDS011;30790;52.030;7.110;2022-11-22T13:54:41;12.20;;;2.53;;
41653;SDS011;30790;52.030;7.110;2022-11-22T14:02:34;13.77;;;3.13;;
41653;SDS011;30790;52.030;7.110;2022-11-22T14:05:00;12.75;;;3.33;;
41653;SDS011;30790;52.030;7.110;2022-11-22T14:07:28;8.40;;;2.38;;
41653;SDS011;30790;52.030;7.110;2022-11-22T14:09:58;9.32;;;2.90;;
41653;SDS011;30790;52.030;7.110;2022-11-22T14:12:28;12.77;;;2.58;;
41653;SDS011;30790;52.030;7.110;2022-11-22T14:21:07;13.82;;;2.35;;
41653;SDS011;30790;52.030;7.110;2022-11-22T14:26:46;8.80;;;2.17;;
41653;SDS011;30790;52.030;7.110;2022-11-22T14:35:32;14.25;;;2.45;;
41653;SDS011;30790;52.030;7.110;2022-11-22T14:38:01;13.98;;;2.78;;
41653;SDS011;30790;52.030;7.110;2022-11-22T14:40:30;11.45;;;2.92;;
41653;SDS011;30790;52.030;7.110;2022-11-22T14:42:58;16.27;;;3.20;;
41653;SDS011;30790;52.030;7.110;2022-11-22T14:45:35;20.92;;;3.90;;
41653;SDS011;30790;52.030;7.110;2022-11-22T14:48:03;14.87;;;3.07;;
41653;SDS011;30790;52.030;7.110;2022-11-22T15:02:00;20.02;;;3.45;;
41653;SDS011;30790;52.030;7.110;2022-11-22T15:07:43;17.90;;;3.50;;
41653;SDS011;30790;52.030;7.110;2022-11-22T15:15:38;13.32;;;2.65;;
41653;SDS011;30790;52.030;7.110;2022-11-22T15:18:29;11.80;;;3.38;;
41653;SDS011;30790;52.030;7.110;2022-11-22T15:20:58;16.60;;;3.83;;
41653;SDS011;30790;52.030;7.110;2022-11-22T15:23:27;13.25;;;3.10;;
41653;SDS011;30790;52.030;7.110;2022-11-22T15:25:59;20.83;;;3.90;;
41653;SDS011;30790;52.030;7.110;2022-11-22T15:28:29;19.73;;;3.30;;
41653;SDS011;30790;52.030;7.110;2022-11-22T15:30:58;14.25;;;2.53;;
41653;SDS011;30790;52.030;7.110;2022-11-22T15:33:31;23.15;;;3.40;;
41653;SDS011;30790;52.030;7.110;2022-11-22T15:38:35;8.13;;;2.95;;
41653;SDS011;30790;52.030;7.110;2022-11-22T15:41:04;12.85;;;2.40;;
41653;SDS011;30790;52.030;7.110;2022-11-22T15:43:30;14.90;;;2.92;;
41653;SDS011;30790;52.030;7.110;2022-11-22T15:45:55;16.25;;;3.17;;
41653;SDS011;30790;52.030;7.110;2022-11-22T15:48:29;12.63;;;3.17;;
41653;SDS011;30790;52.030;7.110;2022-11-22T15:51:18;12.95;;;3.00;;
41653;SDS011;30790;52.030;7.110;2022-11-22T15:59:16;12.85;;;3.08;;
41653;SDS011;30790;52.030;7.110;2022-11-22T16:02:17;15.18;;;3.50;;
41653;SDS011;30790;52.030;7.110;2022-11-22T16:05:02;14.52;;;3.33;;
41653;SDS011;30790;52.030;7.110;2022-11-22T16:07:35;14.50;;;3.40;;
41653;SDS011;30790;52.030;7.110;2022-11-22T16:10:03;15.35;;;3.40;;
41653;SDS011;30790;52.030;7.110;2022-11-22T16:12:34;17.17;;;2.85;;
41653;SDS011;30790;52.030;7.110;2022-11-22T16:18:04;23.38;;;3.63;;
41653;SDS011;30790;52.030;7.110;2022-11-22T16:20:41;14.95;;;3.55;;
41653;SDS011;30790;52.030;7.110;2022-11-22T16:23:24;13.30;;;3.15;;
41653;SDS011;30790;52.030;7.110;2022-11-22T16:25:52;12.32;;;2.42;;
41653;SDS011;30790;52.030;7.110;2022-11-22T16:30:56;16.88;;;3.10;;
41653;SDS011;30790;52.030;7.110;2022-11-22T16:33:23;12.93;;;2.55;;
41653;SDS011;30790;52.030;7.110;2022-11-22T16:35:56;14.27;;;2.72;;
41653;SDS011;30790;52.030;7.110;2022-11-22T16:38:23;10.43;;;3.00;;
41653;SDS011;30790;52.030;7.110;2022-11-22T16:40:49;12.98;;;3.08;;
41653;SDS011;30790;52.030;7.110;2022-11-22T16:43:19;21.10;;;2.95;;
41653;SDS011;30790;52.030;7.110;2022-11-22T16:45:46;23.48;;;3.58;;